createdAt,value
2018-02-01T00:00:10.259Z,5.79
2018-02-01T00:05:11.630Z,5.77
2018-02-01T00:10:12.938Z,5.70
2018-02-01T00:15:14.254Z,5.67
2018-02-01T00:20:16.365Z,5.64
2018-02-01T00:25:18.407Z,5.65
2018-02-01T00:30:19.755Z,5.70
2018-02-01T00:35:21.838Z,5.73
2018-02-01T00:40:23.165Z,5.72
2018-02-01T00:45:25.261Z,5.75
2018-02-01T00:50:26.570Z,5.78
2018-02-01T00:55:27.884Z,5.77
2018-02-01T01:00:29.214Z,5.68
2018-02-01T01:05:30.539Z,5.70
2018-02-01T01:10:31.856Z,5.64
2018-02-01T01:15:33.193Z,5.74
2018-02-01T01:20:35.256Z,5.71
2018-02-01T01:25:36.552Z,5.65
2018-02-01T01:30:37.872Z,5.77
2018-02-01T01:35:39.215Z,5.76
2018-02-01T01:40:40.542Z,5.71
2018-02-01T01:46:00.527Z,5.65
2018-02-01T01:51:01.842Z,5.55
2018-02-01T01:56:03.208Z,5.49
2018-02-01T02:01:04.489Z,5.58
2018-02-01T02:06:05.793Z,5.49
2018-02-01T02:11:07.147Z,5.40
2018-02-01T02:16:09.195Z,5.45
2018-02-01T02:21:10.524Z,5.56
2018-02-01T02:26:11.824Z,5.47
2018-02-01T02:31:13.879Z,5.37
2018-02-01T02:36:15.231Z,5.53
2018-02-01T02:41:16.544Z,5.47
2018-02-01T02:46:24.731Z,5.40
2018-02-01T02:51:26.043Z,5.48
2018-02-01T02:56:28.070Z,5.50
2018-02-01T03:01:29.388Z,5.49
2018-02-01T03:06:30.769Z,5.42
2018-02-01T03:11:32.128Z,5.40
2018-02-01T03:16:34.163Z,5.37
2018-02-01T03:21:35.487Z,5.33
2018-02-01T03:26:36.798Z,5.33
2018-02-01T03:31:38.866Z,5.24
2018-02-01T03:36:40.207Z,5.30
2018-02-01T03:41:41.542Z,5.27
2018-02-01T03:46:42.844Z,5.21
2018-02-01T03:51:44.151Z,5.22
2018-02-01T03:56:45.469Z,5.22
2018-02-01T04:01:47.539Z,5.25
2018-02-01T04:06:48.947Z,5.31
2018-02-01T04:11:50.375Z,5.28
2018-02-01T04:16:51.707Z,5.15
2018-02-01T04:21:53.011Z,5.14
2018-02-01T04:26:54.442Z,5.09
2018-02-01T04:31:55.832Z,5.21
2018-02-01T04:36:57.205Z,5.08
2018-02-01T04:41:59.570Z,5.09
2018-02-01T04:47:01.040Z,5.11
2018-02-01T04:52:02.671Z,5.11
2018-02-01T04:57:04.493Z,5.06
2018-02-01T05:02:05.822Z,5.02
2018-02-01T05:07:07.146Z,5.05
2018-02-01T05:12:09.214Z,5.00
2018-02-01T05:17:10.773Z,5.11
2018-02-01T05:22:12.320Z,5.16
2018-02-01T05:27:13.646Z,5.08
2018-02-01T05:32:14.986Z,5.15
2018-02-01T05:37:16.343Z,5.10
2018-02-01T05:42:18.404Z,5.19
2018-02-01T05:47:19.737Z,5.15
2018-02-01T05:52:21.067Z,5.20
2018-02-01T05:57:22.420Z,5.13
2018-02-01T06:02:24.463Z,5.30
2018-02-01T06:07:26.859Z,5.34
2018-02-01T06:12:28.189Z,5.28
2018-02-01T06:17:29.550Z,5.29
2018-02-01T06:22:30.895Z,5.44
2018-02-01T06:27:32.231Z,5.38
2018-02-01T06:32:33.592Z,5.34
2018-02-01T06:37:35.951Z,5.27
2018-02-01T06:42:37.275Z,5.29
2018-02-01T06:47:38.595Z,5.34
2018-02-01T06:52:40.655Z,5.28
2018-02-01T06:57:42.012Z,5.20
2018-02-01T07:02:43.408Z,5.24
2018-02-01T07:07:44.719Z,5.09
2018-02-01T07:12:46.043Z,5.01
2018-02-01T07:17:48.162Z,5.08
2018-02-01T07:22:49.555Z,5.22
2018-02-01T07:27:51.693Z,5.29
2018-02-01T07:32:53.529Z,5.45
2018-02-01T07:37:54.947Z,5.42
2018-02-01T07:42:57.656Z,5.40
2018-02-01T07:47:58.990Z,5.37
2018-02-01T07:53:00.366Z,5.40
2018-02-01T07:58:01.984Z,5.39
2018-02-01T08:03:03.328Z,5.34
2018-02-01T08:08:04.641Z,5.35
2018-02-01T08:13:05.978Z,5.50
2018-02-01T08:18:07.315Z,5.66
2018-02-01T08:23:08.647Z,5.65
2018-02-01T08:28:10.059Z,5.77
2018-02-01T08:33:11.694Z,5.65
2018-02-01T08:38:13.427Z,5.61
2018-02-01T08:43:14.735Z,5.65
2018-02-01T08:48:16.052Z,5.75
2018-02-01T08:53:18.155Z,5.96
2018-02-01T08:58:19.553Z,5.96
2018-02-01T09:03:21.632Z,6.24
2018-02-01T09:08:22.972Z,6.30
2018-02-01T09:13:24.332Z,6.39
2018-02-01T09:18:26.394Z,6.38
2018-02-01T09:23:28.049Z,6.68
2018-02-01T09:28:30.130Z,7.02
2018-02-01T09:33:31.493Z,7.14
2018-02-01T09:38:32.841Z,6.95
2018-02-01T09:43:34.193Z,7.21
2018-02-01T09:48:35.532Z,7.37
2018-02-01T09:53:36.847Z,7.58
2018-02-01T09:58:38.167Z,7.70
2018-02-01T10:03:39.507Z,7.56
2018-02-01T10:08:40.815Z,7.72
2018-02-01T10:13:42.179Z,7.63
2018-02-01T10:18:43.496Z,7.44
2018-02-01T10:23:44.803Z,7.39
2018-02-01T10:28:46.104Z,7.32
2018-02-01T10:33:47.466Z,7.53
2018-02-01T10:38:49.140Z,7.76
2018-02-01T10:43:50.707Z,7.93
2018-02-01T10:48:52.760Z,8.02
2018-02-01T10:53:54.147Z,7.87
2018-02-01T10:58:55.547Z,8.22
2018-02-01T11:03:57.013Z,8.25
2018-02-01T11:08:58.754Z,8.54
2018-02-01T11:14:00.423Z,8.73
2018-02-01T11:19:01.734Z,8.58
2018-02-01T11:24:04.284Z,8.60
2018-02-01T11:29:06.652Z,8.96
2018-02-01T11:34:07.999Z,9.25
2018-02-01T11:39:09.336Z,9.53
2018-02-01T11:44:11.386Z,9.49
2018-02-01T11:49:13.462Z,9.69
2018-02-01T11:54:15.044Z,9.97
2018-02-01T11:59:16.408Z,9.80
2018-02-01T12:04:17.746Z,9.87
2018-02-01T12:09:20.736Z,9.86
2018-02-01T12:14:22.164Z,9.47
2018-02-01T12:19:23.915Z,9.68
2018-02-01T12:24:26.832Z,9.61
2018-02-01T12:29:28.203Z,9.92
2018-02-01T12:34:30.415Z,9.68
2018-02-01T12:39:32.495Z,9.47
2018-02-01T12:44:33.817Z,8.95
2018-02-01T12:49:35.882Z,8.67
2018-02-01T12:54:37.277Z,8.91
2018-02-01T12:59:38.607Z,8.98
2018-02-01T13:04:41.966Z,8.78
2018-02-01T13:09:43.991Z,8.95
2018-02-01T13:14:46.351Z,9.07
2018-02-01T13:19:48.264Z,9.01
2018-02-01T13:24:50.723Z,9.00
2018-02-01T13:29:52.720Z,9.24
2018-02-01T13:34:54.249Z,9.03
2018-02-01T13:39:55.844Z,8.89
2018-02-01T13:44:57.314Z,8.79
2018-02-01T13:50:00.196Z,8.83
2018-02-01T13:55:01.974Z,8.72
2018-02-01T14:00:04.838Z,8.97
2018-02-01T14:05:06.467Z,9.08
2018-02-01T14:10:08.035Z,9.01
2018-02-01T14:15:09.445Z,8.88
2018-02-01T14:20:11.024Z,8.73
2018-02-01T14:25:12.597Z,8.65
2018-02-01T14:30:14.908Z,8.67
2018-02-01T14:40:18.259Z,8.81
2018-02-01T14:45:19.739Z,8.84
2018-02-01T14:50:21.098Z,9.00
2018-02-01T14:55:22.517Z,9.06
2018-02-01T15:00:23.865Z,8.95
2018-02-01T15:05:25.967Z,8.86
2018-02-01T15:10:28.124Z,8.86
2018-02-01T15:15:29.504Z,8.95
2018-02-01T15:20:30.856Z,8.47
2018-02-01T15:25:32.976Z,8.38
2018-02-01T15:30:34.340Z,8.36
2018-02-01T15:35:36.463Z,8.28
2018-02-01T15:40:38.540Z,8.22
2018-02-01T15:45:39.905Z,8.04
2018-02-01T15:50:41.246Z,8.24
2018-02-01T15:55:43.327Z,8.09
2018-02-01T16:00:44.863Z,7.99
2018-02-01T16:05:46.261Z,7.90
2018-02-01T16:10:47.631Z,7.81
2018-02-01T16:15:48.996Z,7.79
2018-02-01T16:20:51.138Z,7.89
2018-02-01T16:25:52.490Z,7.69
2018-02-01T16:30:53.890Z,7.64
2018-02-01T16:35:55.280Z,7.61
2018-02-01T16:40:56.621Z,7.78
2018-02-01T16:45:57.977Z,7.72
2018-02-01T16:51:00.053Z,7.74
2018-02-01T16:56:01.412Z,7.71
2018-02-01T17:01:02.776Z,7.60
2018-02-01T17:06:04.116Z,7.59
2018-02-01T17:11:05.440Z,7.64
2018-02-01T17:16:07.562Z,7.71
2018-02-01T17:21:08.896Z,7.52
2018-02-01T17:26:10.236Z,7.67
2018-02-01T17:31:11.567Z,7.71
2018-02-01T17:36:14.917Z,7.56
2018-02-01T17:41:16.280Z,7.32
2018-02-01T17:46:17.817Z,7.11
2018-02-01T17:51:19.181Z,6.98
2018-02-01T17:56:20.591Z,6.96
2018-02-01T18:01:21.930Z,6.87
2018-02-01T18:06:23.302Z,6.96
2018-02-01T18:11:24.646Z,7.08
2018-02-01T18:16:25.991Z,7.06
2018-02-01T18:21:27.822Z,7.09
2018-02-01T18:26:29.361Z,7.18
2018-02-01T18:31:30.794Z,7.05
2018-02-01T18:36:32.183Z,7.05
2018-02-01T18:41:34.566Z,7.02
2018-02-01T18:46:36.139Z,7.16
2018-02-01T18:51:37.959Z,7.10
2018-02-01T18:56:40.996Z,7.00
2018-02-01T19:01:42.386Z,6.92
2018-02-01T19:06:44.274Z,6.69
2018-02-01T19:11:46.335Z,6.63
2018-02-01T19:16:47.733Z,6.50
2018-02-01T19:21:49.199Z,6.20
2018-02-01T19:26:54.340Z,6.06
2018-02-01T19:31:55.719Z,6.08
2018-02-01T19:36:57.023Z,6.10
2018-02-01T19:41:59.368Z,6.05
2018-02-01T19:47:01.096Z,5.96
2018-02-01T19:52:03.016Z,5.96
2018-02-01T19:57:05.015Z,5.96
2018-02-01T20:02:06.811Z,5.97
2018-02-01T20:07:08.151Z,5.95
2018-02-01T20:12:09.490Z,5.89
2018-02-01T20:17:17.933Z,5.80
2018-02-01T20:22:19.252Z,5.90
2018-02-01T20:27:20.595Z,5.84
2018-02-01T20:32:22.187Z,5.89
2018-02-01T20:37:23.549Z,5.89
2018-02-01T20:42:25.643Z,5.87
2018-02-01T20:47:27.047Z,5.98
2018-02-01T20:52:29.135Z,5.95
2018-02-01T20:57:30.546Z,5.86
2018-02-01T21:02:32.692Z,5.79
2018-02-01T21:07:34.052Z,5.82
2018-02-01T21:12:35.412Z,5.76
2018-02-01T21:17:36.860Z,5.78
2018-02-01T21:22:38.208Z,5.77
2018-02-01T21:27:40.300Z,5.78
2018-02-01T21:32:41.660Z,5.87
2018-02-01T21:37:42.990Z,5.78
2018-02-01T21:42:44.347Z,5.75
2018-02-01T21:47:45.700Z,5.71
2018-02-01T21:52:47.131Z,5.71
2018-02-01T21:57:48.604Z,5.71
2018-02-01T22:02:50.064Z,5.71
2018-02-01T22:07:51.450Z,5.73
2018-02-01T22:12:53.507Z,5.73
2018-02-01T22:17:54.850Z,5.75
2018-02-01T22:22:57.214Z,5.72
2018-02-01T22:27:58.561Z,5.67
2018-02-01T22:32:59.916Z,5.66
2018-02-01T22:38:01.290Z,5.68
2018-02-01T22:43:02.687Z,5.71
2018-02-01T22:48:04.004Z,5.72
2018-02-01T22:53:06.103Z,5.72
2018-02-01T22:58:07.419Z,5.84
2018-02-01T23:03:08.745Z,6.07
2018-02-01T23:08:10.106Z,6.14
2018-02-01T23:13:11.458Z,6.22
2018-02-01T23:18:12.817Z,6.32
2018-02-01T23:23:14.143Z,6.45
2018-02-01T23:28:16.211Z,6.36
2018-02-01T23:33:17.518Z,6.16
2018-02-01T23:38:18.851Z,6.05
2018-02-01T23:43:20.184Z,6.08
2018-02-01T23:48:21.498Z,6.07
2018-02-01T23:53:22.845Z,6.03
2018-02-01T23:58:24.158Z,6.12
